Time;durP1;ratioP1;P1;durP2;ratioP2;P2;SDS_P1;SDS_P2;PMS_P1;PMS_P2;Temp;Humidity;BMP_temperature;BMP_pressure;BME280_temperature;BME280_humidity;BME280_pressure;Samples;Min_cycle;Max_cycle;Signal;HPM_P1;HPM_P2
2022/02/05 00:03:38;;;;;;;9.15;3.63;;;;;;;;;;5076934;28;20721;-79
2022/02/05 00:19:58;;;;;;;6.68;3.40;;;;;;;;;;5065223;28;20192;-79
2022/02/05 00:43:11;;;;;;;8.68;4.32;;;;;;;;;;5064481;28;20274;-78
2022/02/05 00:45:44;;;;;;;6.68;2.97;;;;;;;;;;5069036;28;20717;-79
2022/02/05 00:48:12;;;;;;;8.90;2.80;;;;;;;;;;5065108;28;20550;-79
2022/02/05 00:50:41;;;;;;;5.80;2.45;;;;;;;;;;5058815;28;20272;-79
2022/02/05 00:53:21;;;;;;;5.35;3.10;;;;;;;;;;5030405;28;20570;-79
2022/02/05 00:55:54;;;;;;;9.80;3.08;;;;;;;;;;5075558;28;20256;-79
2022/02/05 00:58:20;;;;;;;8.75;2.80;;;;;;;;;;5052748;28;20200;-78
2022/02/05 01:00:46;;;;;;;3.65;2.67;;;;;;;;;;5050026;28;20181;-79
2022/02/05 01:03:12;;;;;;;5.28;2.40;;;;;;;;;;5047500;28;20215;-79
2022/02/05 01:05:38;;;;;;;6.80;2.00;;;;;;;;;;5043019;28;20190;-79
2022/02/05 01:08:04;;;;;;;4.45;2.58;;;;;;;;;;5045300;28;20185;-77
2022/02/05 01:10:30;;;;;;;4.93;2.40;;;;;;;;;;5050602;28;20178;-78
2022/02/05 01:13:01;;;;;;;9.27;3.63;;;;;;;;;;5052210;28;20285;-80
2022/02/05 01:15:35;;;;;;;6.35;3.03;;;;;;;;;;5059936;28;20182;-79
2022/02/05 01:18:04;;;;;;;9.25;2.75;;;;;;;;;;5050272;28;20231;-79
2022/02/05 01:23:15;;;;;;;6.82;3.67;;;;;;;;;;5048938;28;20629;-78
2022/02/05 01:25:47;;;;;;;8.25;2.58;;;;;;;;;;5043387;28;20184;-80
2022/02/05 01:28:18;;;;;;;5.20;2.08;;;;;;;;;;5053285;28;20182;-78
2022/02/05 01:30:49;;;;;;;8.27;2.55;;;;;;;;;;5049620;28;20185;-79
2022/02/05 01:33:48;;;;;;;5.45;3.28;;;;;;;;;;5042469;28;20232;-78
2022/02/05 01:53:02;;;;;;;10.35;3.85;;;;;;;;;;5064483;28;20179;-80
2022/02/05 01:55:37;;;;;;;11.90;2.25;;;;;;;;;;5049223;28;20216;-79
2022/02/05 02:11:48;;;;;;;3.25;2.10;;;;;;;;;;5047105;28;20191;-77
2022/02/05 02:21:50;;;;;;;5.60;2.35;;;;;;;;;;5053025;28;20196;-79
2022/02/05 02:24:27;;;;;;;5.63;2.20;;;;;;;;;;5049999;28;20180;-80
2022/02/05 02:27:10;;;;;;;4.80;2.30;;;;;;;;;;5041263;28;20181;-78
2022/02/05 02:32:06;;;;;;;5.15;2.63;;;;;;;;;;5045997;28;20240;-78
2022/02/05 02:34:38;;;;;;;3.67;2.28;;;;;;;;;;5063191;28;20177;-78
2022/02/05 02:37:07;;;;;;;5.80;2.78;;;;;;;;;;5049920;28;20193;-78
2022/02/05 02:39:45;;;;;;;4.15;2.03;;;;;;;;;;5050220;28;20234;-80
2022/02/05 02:42:12;;;;;;;5.82;2.20;;;;;;;;;;5047751;28;20269;-79
2022/02/05 02:44:38;;;;;;;5.55;2.38;;;;;;;;;;5051812;28;20213;-77
2022/02/05 02:47:04;;;;;;;6.47;2.78;;;;;;;;;;5025990;28;20216;-79
2022/02/05 02:57:53;;;;;;;3.67;1.85;;;;;;;;;;5060753;28;20220;-79
2022/02/05 03:00:19;;;;;;;6.38;2.05;;;;;;;;;;5037719;28;20192;-79
2022/02/05 03:02:45;;;;;;;8.05;2.65;;;;;;;;;;5041287;28;20209;-79
2022/02/05 03:05:11;;;;;;;7.40;2.42;;;;;;;;;;5026684;28;20185;-80
2022/02/05 03:07:37;;;;;;;5.30;2.47;;;;;;;;;;5048228;28;20173;-79
2022/02/05 03:10:04;;;;;;;8.63;2.60;;;;;;;;;;5045725;28;20177;-79
2022/02/05 03:12:30;;;;;;;6.13;2.50;;;;;;;;;;5056897;28;20791;-79
2022/02/05 03:14:56;;;;;;;5.28;2.20;;;;;;;;;;5058024;28;20193;-78
2022/02/05 03:17:25;;;;;;;8.88;2.63;;;;;;;;;;5045291;28;20209;-79
2022/02/05 03:19:52;;;;;;;7.38;2.15;;;;;;;;;;5046340;28;20205;-78
2022/02/05 03:22:20;;;;;;;3.80;1.50;;;;;;;;;;5031083;28;20260;-78
2022/02/05 03:24:46;;;;;;;4.60;1.70;;;;;;;;;;5033266;28;20217;-79
2022/02/05 03:27:14;;;;;;;2.30;1.92;;;;;;;;;;5047458;28;20185;-78
2022/02/05 03:29:43;;;;;;;4.95;2.50;;;;;;;;;;5047625;28;20185;-79
2022/02/05 03:32:10;;;;;;;4.80;1.90;;;;;;;;;;5052806;28;20193;-79
2022/02/05 03:34:36;;;;;;;6.20;1.90;;;;;;;;;;5041888;28;20191;-79
2022/02/05 03:37:02;;;;;;;5.85;2.30;;;;;;;;;;5069146;28;20180;-79
2022/02/05 03:39:28;;;;;;;3.85;1.88;;;;;;;;;;5048194;28;20288;-79
2022/02/05 03:41:54;;;;;;;8.20;2.20;;;;;;;;;;5049571;28;20193;-79
2022/02/05 03:44:20;;;;;;;24.85;2.83;;;;;;;;;;5043935;28;20253;-79
2022/02/05 03:46:48;;;;;;;3.10;2.08;;;;;;;;;;5064335;28;20176;-79
2022/02/05 03:49:17;;;;;;;5.80;2.20;;;;;;;;;;5044340;28;20416;-79
2022/02/05 03:51:43;;;;;;;8.00;3.13;;;;;;;;;;5044922;28;20277;-79
2022/02/05 03:54:09;;;;;;;6.63;2.60;;;;;;;;;;5052102;28;20544;-78
2022/02/05 03:56:35;;;;;;;5.50;1.45;;;;;;;;;;5045224;28;20181;-79
2022/02/05 03:59:01;;;;;;;4.15;2.40;;;;;;;;;;5026708;28;20220;-79
2022/02/05 04:01:27;;;;;;;4.55;1.65;;;;;;;;;;5043188;28;20178;-78
2022/02/05 04:03:53;;;;;;;2.75;1.88;;;;;;;;;;5040303;28;20223;-78
2022/02/05 04:06:19;;;;;;;2.65;1.45;;;;;;;;;;5033789;28;20228;-79
2022/02/05 04:08:47;;;;;;;6.10;1.75;;;;;;;;;;5052682;28;20193;-79
2022/02/05 04:11:28;;;;;;;5.53;2.55;;;;;;;;;;5059847;28;20185;-79
2022/02/05 04:16:43;;;;;;;3.58;2.28;;;;;;;;;;5059012;28;20211;-79
2022/02/05 04:19:09;;;;;;;8.13;1.85;;;;;;;;;;5046455;28;20198;-78
2022/02/05 04:21:35;;;;;;;4.70;1.60;;;;;;;;;;5049133;28;20170;-79
2022/02/05 04:24:02;;;;;;;3.15;1.95;;;;;;;;;;5063349;28;20181;-79
2022/02/05 04:26:28;;;;;;;4.88;1.92;;;;;;;;;;5048550;28;20177;-79
2022/02/05 04:28:54;;;;;;;2.58;1.35;;;;;;;;;;5058516;28;20216;-79
2022/02/05 04:31:20;;;;;;;10.30;1.98;;;;;;;;;;5052387;28;20629;-79
2022/02/05 04:33:46;;;;;;;6.30;2.15;;;;;;;;;;5056885;28;20315;-79
2022/02/05 04:36:13;;;;;;;3.80;1.85;;;;;;;;;;5050682;28;20185;-79
2022/02/05 04:38:42;;;;;;;9.80;2.60;;;;;;;;;;5044410;28;20281;-79
2022/02/05 04:41:18;;;;;;;5.90;2.17;;;;;;;;;;5027874;28;20196;-79
2022/02/05 04:56:51;;;;;;;7.93;2.17;;;;;;;;;;5031163;28;20236;-79
2022/02/05 05:02:47;;;;;;;2.67;1.77;;;;;;;;;;5032800;28;20200;-79
2022/02/05 05:05:05;;;;;;;2.60;2.10;;;;;;;;;;5040592;28;20182;-79
2022/02/05 05:12:56;;;;;;;14.30;2.53;;;;;;;;;;5041931;28;20202;-79
2022/02/05 05:20:39;;;;;;;4.10;1.73;;;;;;;;;;5030164;28;20243;-80
2022/02/05 05:23:05;;;;;;;2.40;1.73;;;;;;;;;;5026121;28;20190;-80
2022/02/05 05:25:31;;;;;;;12.48;2.15;;;;;;;;;;5035758;28;20204;-80
2022/02/05 05:27:57;;;;;;;9.13;2.30;;;;;;;;;;5039007;28;20185;-80
2022/02/05 05:30:23;;;;;;;4.38;1.65;;;;;;;;;;5040926;28;20182;-81
2022/02/05 05:32:49;;;;;;;2.15;1.50;;;;;;;;;;5040399;28;20229;-81
2022/02/05 05:35:15;;;;;;;9.73;2.00;;;;;;;;;;5043864;28;20682;-81
2022/02/05 05:37:41;;;;;;;5.40;1.90;;;;;;;;;;5031639;28;20183;-80
2022/02/05 05:40:08;;;;;;;8.02;1.65;;;;;;;;;;5050684;28;20177;-80
2022/02/05 05:42:41;;;;;;;6.32;2.10;;;;;;;;;;5058899;28;20178;-80
2022/02/05 05:47:51;;;;;;;7.40;2.20;;;;;;;;;;5071335;28;20330;-80
2022/02/05 05:53:03;;;;;;;8.20;2.05;;;;;;;;;;5046866;28;20204;-80
2022/02/05 05:55:29;;;;;;;4.57;1.60;;;;;;;;;;5056997;28;20210;-80
2022/02/05 05:57:56;;;;;;;4.80;2.00;;;;;;;;;;5038243;28;20260;-80
2022/02/05 06:00:22;;;;;;;6.35;1.63;;;;;;;;;;5048849;28;20546;-80
2022/02/05 06:02:48;;;;;;;6.78;2.20;;;;;;;;;;5045668;28;20192;-80
2022/02/05 06:05:14;;;;;;;5.93;1.95;;;;;;;;;;5056965;28;20196;-80
2022/02/05 06:07:40;;;;;;;5.10;2.03;;;;;;;;;;5048916;28;20173;-80
2022/02/05 06:10:06;;;;;;;6.07;1.92;;;;;;;;;;5058110;28;20187;-80
2022/02/05 06:12:32;;;;;;;11.02;1.83;;;;;;;;;;5054271;28;20178;-80
2022/02/05 06:15:02;;;;;;;2.58;1.52;;;;;;;;;;5049873;28;20573;-80
2022/02/05 06:17:28;;;;;;;11.38;2.35;;;;;;;;;;5044674;28;20181;-80
2022/02/05 06:19:55;;;;;;;6.18;1.65;;;;;;;;;;5064624;28;20608;-79
2022/02/05 06:22:21;;;;;;;3.13;1.52;;;;;;;;;;5049208;28;20305;-80
2022/02/05 06:24:47;;;;;;;3.00;1.70;;;;;;;;;;5053151;28;20181;-80
2022/02/05 06:27:13;;;;;;;8.90;2.00;;;;;;;;;;5052542;28;20181;-80
2022/02/05 06:29:39;;;;;;;3.95;2.15;;;;;;;;;;5045592;28;20224;-80
2022/02/05 06:32:06;;;;;;;5.68;2.08;;;;;;;;;;5062156;28;20189;-80
2022/02/05 06:34:31;;;;;;;1.75;1.48;;;;;;;;;;5042263;28;20187;-81
2022/02/05 06:36:58;;;;;;;4.63;1.58;;;;;;;;;;5049379;28;20190;-80
2022/02/05 06:39:24;;;;;;;4.15;1.55;;;;;;;;;;5049352;28;20309;-80
2022/02/05 06:41:50;;;;;;;2.25;1.20;;;;;;;;;;5066612;28;20249;-80
2022/02/05 06:44:16;;;;;;;6.63;1.30;;;;;;;;;;5049446;28;20181;-80
2022/02/05 06:46:43;;;;;;;2.95;1.60;;;;;;;;;;5029683;28;20692;-81
2022/02/05 06:49:09;;;;;;;3.25;2.05;;;;;;;;;;5029231;28;20177;-81
2022/02/05 06:51:35;;;;;;;5.10;2.00;;;;;;;;;;5040994;28;20199;-80
2022/02/05 06:54:01;;;;;;;3.72;1.45;;;;;;;;;;5059118;28;20196;-81
2022/02/05 06:56:27;;;;;;;4.15;1.33;;;;;;;;;;5046925;28;20336;-80
2022/02/05 06:58:53;;;;;;;7.00;1.55;;;;;;;;;;5052713;28;20268;-81
2022/02/05 07:01:19;;;;;;;5.22;1.75;;;;;;;;;;5037989;28;20200;-80
2022/02/05 07:03:45;;;;;;;2.13;1.45;;;;;;;;;;5050960;28;20181;-81
2022/02/05 07:06:11;;;;;;;7.32;2.60;;;;;;;;;;5052125;28;20207;-81
2022/02/05 07:08:40;;;;;;;10.65;2.47;;;;;;;;;;5044442;28;20212;-80
2022/02/05 07:11:06;;;;;;;8.07;2.45;;;;;;;;;;5060659;28;20253;-81
2022/02/05 07:13:32;;;;;;;3.65;1.80;;;;;;;;;;5048415;28;20249;-80
2022/02/05 07:18:46;;;;;;;10.95;2.40;;;;;;;;;;5054059;28;20338;-81
2022/02/05 07:21:28;;;;;;;6.03;2.45;;;;;;;;;;5046482;28;20654;-80
2022/02/05 07:29:14;;;;;;;4.47;1.52;;;;;;;;;;5043330;28;20252;-84
2022/02/05 07:31:51;;;;;;;6.15;2.05;;;;;;;;;;5051499;28;20188;-85
2022/02/05 07:34:18;;;;;;;3.58;1.60;;;;;;;;;;5058195;28;20189;-84
2022/02/05 07:36:45;;;;;;;4.95;1.83;;;;;;;;;;5045610;28;20180;-84
2022/02/05 07:39:11;;;;;;;8.63;2.30;;;;;;;;;;5043956;28;20229;-84
2022/02/05 07:41:39;;;;;;;5.00;2.10;;;;;;;;;;5041189;28;20182;-83
2022/02/05 07:44:05;;;;;;;9.60;2.45;;;;;;;;;;5043783;28;20178;-84
2022/02/05 07:46:31;;;;;;;13.88;2.13;;;;;;;;;;5046763;28;20173;-83
2022/02/05 07:48:57;;;;;;;11.50;2.65;;;;;;;;;;5056004;28;20188;-83
2022/02/05 07:51:23;;;;;;;4.22;1.77;;;;;;;;;;5051949;28;20208;-84
2022/02/05 07:53:49;;;;;;;8.35;2.90;;;;;;;;;;5056308;28;20200;-83
2022/02/05 07:56:15;;;;;;;4.32;2.30;;;;;;;;;;5042594;28;20181;-83
2022/02/05 07:58:41;;;;;;;6.63;2.10;;;;;;;;;;5038271;28;20286;-83
2022/02/05 08:01:07;;;;;;;4.03;2.03;;;;;;;;;;5039978;28;20169;-83
2022/02/05 08:03:33;;;;;;;4.63;2.10;;;;;;;;;;5056344;28;20188;-83
2022/02/05 08:06:00;;;;;;;5.80;3.15;;;;;;;;;;5052280;28;20189;-83
2022/02/05 08:08:29;;;;;;;9.75;3.00;;;;;;;;;;5059711;28;20188;-83
2022/02/05 08:11:00;;;;;;;7.82;2.90;;;;;;;;;;5069101;28;20196;-84
2022/02/05 08:13:28;;;;;;;3.85;2.55;;;;;;;;;;5045136;28;20311;-84
2022/02/05 08:15:58;;;;;;;9.65;2.08;;;;;;;;;;5061988;28;20181;-84
2022/02/05 08:18:24;;;;;;;9.70;3.00;;;;;;;;;;5040727;28;20244;-84
2022/02/05 08:20:50;;;;;;;8.60;3.78;;;;;;;;;;5047982;28;20192;-86
2022/02/05 08:23:16;;;;;;;9.40;2.90;;;;;;;;;;5068564;28;20174;-84
2022/02/05 08:25:43;;;;;;;6.47;2.35;;;;;;;;;;5037712;28;20182;-82
2022/02/05 08:28:09;;;;;;;11.23;3.47;;;;;;;;;;5060210;28;20234;-81
2022/02/05 08:30:34;;;;;;;9.95;3.15;;;;;;;;;;5041624;28;20186;-81
2022/02/05 08:33:02;;;;;;;4.47;2.33;;;;;;;;;;5054423;28;20267;-82
2022/02/05 08:35:28;;;;;;;7.05;2.40;;;;;;;;;;5064838;28;20439;-83
2022/02/05 08:37:57;;;;;;;4.13;2.33;;;;;;;;;;5043962;28;20274;-83
2022/02/05 08:40:23;;;;;;;4.65;2.30;;;;;;;;;;5049858;28;20571;-82
2022/02/05 08:42:49;;;;;;;7.00;2.03;;;;;;;;;;5045324;28;20197;-81
2022/02/05 08:45:16;;;;;;;8.30;2.25;;;;;;;;;;5040155;28;20178;-84
2022/02/05 08:47:42;;;;;;;4.40;1.95;;;;;;;;;;5056872;28;20206;-82
2022/02/05 08:50:08;;;;;;;10.10;3.50;;;;;;;;;;5054527;28;20200;-83
2022/02/05 08:52:39;;;;;;;7.80;3.72;;;;;;;;;;5060017;28;20170;-85
2022/02/05 08:55:06;;;;;;;5.47;2.75;;;;;;;;;;5034673;28;20189;-80
2022/02/05 08:57:34;;;;;;;3.58;2.90;;;;;;;;;;5050356;28;20180;-80
2022/02/05 09:00:08;;;;;;;6.57;2.40;;;;;;;;;;5065625;28;20204;-83
2022/02/05 09:03:00;;;;;;;12.00;2.40;;;;;;;;;;5045635;28;20185;-83
2022/02/05 09:08:20;;;;;;;5.25;2.45;;;;;;;;;;5067160;28;20200;-82
2022/02/05 09:16:11;;;;;;;5.25;2.70;;;;;;;;;;5051382;28;20186;-83
2022/02/05 09:18:38;;;;;;;4.85;2.60;;;;;;;;;;5063731;28;20224;-83
2022/02/05 09:21:04;;;;;;;5.15;2.13;;;;;;;;;;5070887;28;20204;-82
2022/02/05 09:23:30;;;;;;;8.10;3.15;;;;;;;;;;5063063;28;20196;-82
2022/02/05 09:26:00;;;;;;;4.65;2.63;;;;;;;;;;5048380;28;20215;-84
2022/02/05 09:28:29;;;;;;;7.57;2.35;;;;;;;;;;5060936;28;20180;-82
2022/02/05 09:33:27;;;;;;;2.88;1.73;;;;;;;;;;5058705;28;20181;-84
2022/02/05 09:35:53;;;;;;;2.95;2.15;;;;;;;;;;5070329;28;20243;-84
2022/02/05 09:38:19;;;;;;;4.37;2.20;;;;;;;;;;5044569;28;20690;-81
2022/02/05 09:40:45;;;;;;;6.40;1.90;;;;;;;;;;5031490;28;20421;-83
2022/02/05 09:43:12;;;;;;;4.60;2.47;;;;;;;;;;5053962;28;20170;-83
2022/02/05 09:45:38;;;;;;;10.73;1.90;;;;;;;;;;5058941;28;20568;-85
2022/02/05 09:48:07;;;;;;;11.68;3.22;;;;;;;;;;5045323;28;20212;-84
2022/02/05 09:50:34;;;;;;;6.68;2.05;;;;;;;;;;5072836;28;20189;-83
2022/02/05 09:53:12;;;;;;;8.02;2.65;;;;;;;;;;5049431;28;20180;-85
2022/02/05 09:55:38;;;;;;;5.53;2.10;;;;;;;;;;5061945;28;20203;-82
2022/02/05 09:58:04;;;;;;;8.75;2.50;;;;;;;;;;5040130;28;20208;-83
2022/02/05 10:00:31;;;;;;;6.10;2.30;;;;;;;;;;5055289;28;20177;-83
2022/02/05 10:02:59;;;;;;;6.50;2.10;;;;;;;;;;5062707;28;20799;-83
2022/02/05 10:05:33;;;;;;;6.57;2.33;;;;;;;;;;5066692;28;20204;-81
2022/02/05 10:08:03;;;;;;;6.90;2.13;;;;;;;;;;5066741;28;20180;-81
2022/02/05 10:10:39;;;;;;;4.55;2.13;;;;;;;;;;5058501;28;20597;-82
2022/02/05 10:13:06;;;;;;;8.20;2.80;;;;;;;;;;5044256;28;20181;-83
2022/02/05 10:15:33;;;;;;;7.93;2.22;;;;;;;;;;5046194;28;20192;-83
2022/02/05 10:18:01;;;;;;;3.83;2.03;;;;;;;;;;5072710;28;20601;-79
2022/02/05 10:20:27;;;;;;;6.28;1.88;;;;;;;;;;5061652;28;20203;-81
2022/02/05 10:22:53;;;;;;;12.07;2.28;;;;;;;;;;5050332;28;20330;-81
2022/02/05 10:25:27;;;;;;;4.22;1.83;;;;;;;;;;5033654;28;20174;-83
2022/02/05 10:27:54;;;;;;;4.80;1.95;;;;;;;;;;5058754;28;20189;-83
2022/02/05 10:30:24;;;;;;;7.05;1.80;;;;;;;;;;5064143;28;20177;-81
2022/02/05 10:33:09;;;;;;;4.75;2.05;;;;;;;;;;5074383;28;20169;-81
2022/02/05 10:36:13;;;;;;;8.30;2.47;;;;;;;;;;5049190;28;20186;-81
2022/02/05 10:43:56;;;;;;;6.13;2.42;;;;;;;;;;5060944;28;20409;-82
2022/02/05 10:46:22;;;;;;;7.63;2.25;;;;;;;;;;5032862;28;20182;-83
2022/02/05 10:48:48;;;;;;;8.70;2.08;;;;;;;;;;5044798;28;20205;-79
2022/02/05 10:51:15;;;;;;;5.03;2.58;;;;;;;;;;5056994;28;20192;-81
2022/02/05 10:53:48;;;;;;;7.68;2.25;;;;;;;;;;5048283;28;20327;-82
2022/02/05 10:56:30;;;;;;;6.20;1.85;;;;;;;;;;5057591;28;20185;-83
2022/02/05 11:07:07;;;;;;;11.35;3.17;;;;;;;;;;5048766;28;20215;-81
2022/02/05 11:09:33;;;;;;;5.05;1.55;;;;;;;;;;5053521;28;20182;-82
2022/02/05 11:12:20;;;;;;;2.65;2.03;;;;;;;;;;5047209;28;20193;-81
2022/02/05 11:20:08;;;;;;;5.15;2.25;;;;;;;;;;5072909;28;20206;-83
2022/02/05 11:22:36;;;;;;;4.90;1.83;;;;;;;;;;5065675;28;20165;-80
2022/02/05 11:25:05;;;;;;;5.53;2.00;;;;;;;;;;5044393;28;20188;-83
2022/02/05 11:27:32;;;;;;;5.57;2.13;;;;;;;;;;5058252;28;20178;-81
2022/02/05 11:30:18;;;;;;;4.25;1.75;;;;;;;;;;5059659;28;20189;-82
2022/02/05 11:32:53;;;;;;;3.40;2.95;;;;;;;;;;5050596;28;20197;-82
2022/02/05 11:35:30;;;;;;;9.20;2.10;;;;;;;;;;5028033;28;20189;-81
2022/02/05 11:38:00;;;;;;;5.07;1.90;;;;;;;;;;5024244;28;20214;-84
2022/02/05 11:40:42;;;;;;;2.65;1.60;;;;;;;;;;5045873;28;20200;-84
2022/02/05 11:43:15;;;;;;;3.10;1.27;;;;;;;;;;5027572;28;20183;-80
2022/02/05 11:45:42;;;;;;;1.95;1.40;;;;;;;;;;5048163;28;20655;-81
2022/02/05 11:48:26;;;;;;;7.75;1.73;;;;;;;;;;5044575;28;20185;-84
2022/02/05 11:51:11;;;;;;;4.10;1.52;;;;;;;;;;5027902;28;20262;-82
2022/02/05 11:53:56;;;;;;;4.22;1.98;;;;;;;;;;5029532;28;20236;-82
2022/02/05 11:56:22;;;;;;;7.75;4.70;;;;;;;;;;5044859;28;20186;-83
2022/02/05 11:58:55;;;;;;;3.45;2.83;;;;;;;;;;5031938;28;20221;-80
2022/02/05 12:01:35;;;;;;;6.15;1.58;;;;;;;;;;5031013;28;20175;-82
2022/02/05 12:04:27;;;;;;;5.45;1.40;;;;;;;;;;5048087;28;20177;-83
2022/02/05 12:06:58;;;;;;;5.65;1.50;;;;;;;;;;5023732;28;20237;-82
2022/02/05 12:09:43;;;;;;;3.72;1.40;;;;;;;;;;5034065;28;20232;-80
2022/02/05 12:12:26;;;;;;;3.95;2.15;;;;;;;;;;5038532;28;20212;-81
2022/02/05 12:15:22;;;;;;;4.80;2.22;;;;;;;;;;5028336;28;20198;-80
2022/02/05 12:20:51;;;;;;;3.17;2.28;;;;;;;;;;5028393;28;20183;-79
2022/02/05 12:25:59;;;;;;;4.13;1.60;;;;;;;;;;5039762;28;20186;-81
2022/02/05 12:28:31;;;;;;;6.45;2.92;;;;;;;;;;5041743;28;20189;-82
2022/02/05 12:31:00;;;;;;;3.92;2.13;;;;;;;;;;5041153;28;20607;-82
2022/02/05 12:33:27;;;;;;;5.15;2.03;;;;;;;;;;5044463;28;20201;-82
2022/02/05 12:35:55;;;;;;;4.75;2.00;;;;;;;;;;5032693;28;20204;-81
2022/02/05 12:38:21;;;;;;;9.23;1.65;;;;;;;;;;5039506;28;20244;-82
2022/02/05 12:40:48;;;;;;;4.45;2.22;;;;;;;;;;5027229;28;20182;-79
2022/02/05 12:43:15;;;;;;;4.68;1.75;;;;;;;;;;5029219;28;20181;-82
2022/02/05 12:46:06;;;;;;;7.55;1.50;;;;;;;;;;5035038;28;20604;-83
2022/02/05 12:48:32;;;;;;;5.10;1.65;;;;;;;;;;5035320;28;20205;-81
2022/02/05 12:50:59;;;;;;;3.22;1.77;;;;;;;;;;5036150;28;20199;-80
2022/02/05 12:53:34;;;;;;;7.30;2.08;;;;;;;;;;5047665;28;20201;-83
2022/02/05 12:56:14;;;;;;;5.50;1.30;;;;;;;;;;5026991;28;20249;-81
2022/02/05 12:59:02;;;;;;;4.38;1.67;;;;;;;;;;5045206;28;20212;-83
2022/02/05 13:01:28;;;;;;;8.10;2.20;;;;;;;;;;5045715;28;20245;-83
2022/02/05 13:04:14;;;;;;;5.57;1.90;;;;;;;;;;5031402;28;20190;-80
2022/02/05 13:06:40;;;;;;;4.78;1.52;;;;;;;;;;5038788;28;20634;-82
2022/02/05 13:09:23;;;;;;;3.65;1.83;;;;;;;;;;5048187;28;20509;-81
2022/02/05 13:11:55;;;;;;;5.05;1.80;;;;;;;;;;5051587;28;20186;-80
2022/02/05 13:14:21;;;;;;;6.68;1.60;;;;;;;;;;5027599;28;20229;-85
2022/02/05 13:16:48;;;;;;;4.45;1.40;;;;;;;;;;5026897;28;20402;-80
2022/02/05 13:19:27;;;;;;;6.32;2.20;;;;;;;;;;5031179;28;20197;-79
2022/02/05 13:25:33;;;;;;;3.40;1.30;;;;;;;;;;5030419;28;20198;-79
2022/02/05 13:35:58;;;;;;;4.07;1.40;;;;;;;;;;5030268;28;20210;-82
2022/02/05 13:38:25;;;;;;;2.95;1.40;;;;;;;;;;5042297;28;20568;-82
2022/02/05 13:41:05;;;;;;;4.32;1.30;;;;;;;;;;5040145;28;20178;-83
2022/02/05 13:43:43;;;;;;;4.15;1.88;;;;;;;;;;5046197;28;20246;-82
2022/02/05 13:46:10;;;;;;;2.22;1.30;;;;;;;;;;5029646;28;20181;-82
2022/02/05 13:48:36;;;;;;;5.25;1.75;;;;;;;;;;5045442;28;20174;-82
2022/02/05 13:51:05;;;;;;;6.55;1.70;;;;;;;;;;5050040;28;20194;-80
2022/02/05 13:53:32;;;;;;;3.00;1.45;;;;;;;;;;5043415;28;20535;-81
2022/02/05 13:55:58;;;;;;;2.45;1.10;;;;;;;;;;5043109;28;20186;-82
2022/02/05 13:58:24;;;;;;;3.55;1.25;;;;;;;;;;5041629;28;20272;-85
2022/02/05 14:00:51;;;;;;;2.45;1.20;;;;;;;;;;5030272;28;20186;-82
2022/02/05 14:03:32;;;;;;;3.47;1.58;;;;;;;;;;5044936;28;20206;-82
2022/02/05 14:06:02;;;;;;;4.78;1.80;;;;;;;;;;5052038;28;20218;-82
2022/02/05 14:08:30;;;;;;;4.25;1.40;;;;;;;;;;5039233;28;20552;-84
2022/02/05 14:10:57;;;;;;;3.80;1.30;;;;;;;;;;5032933;28;20178;-80
2022/02/05 14:13:23;;;;;;;3.88;1.52;;;;;;;;;;5045997;28;20177;-83
2022/02/05 14:15:54;;;;;;;3.50;1.50;;;;;;;;;;5043655;28;20193;-81
2022/02/05 14:18:21;;;;;;;3.95;1.30;;;;;;;;;;5039229;28;20465;-83
2022/02/05 14:20:54;;;;;;;4.10;1.20;;;;;;;;;;5051355;28;20189;-82
2022/02/05 14:23:23;;;;;;;3.05;1.60;;;;;;;;;;5041284;28;20594;-79
2022/02/05 14:25:52;;;;;;;3.10;1.25;;;;;;;;;;5058016;28;20210;-83
2022/02/05 14:28:28;;;;;;;3.13;0.98;;;;;;;;;;5039853;28;20246;-83
2022/02/05 14:31:11;;;;;;;5.78;1.50;;;;;;;;;;5036138;28;20176;-84
2022/02/05 14:42:05;;;;;;;2.93;1.50;;;;;;;;;;5052078;28;20474;-84
2022/02/05 14:44:32;;;;;;;3.23;1.30;;;;;;;;;;5041844;28;20977;-81
2022/02/05 14:46:58;;;;;;;7.20;2.77;;;;;;;;;;5044667;28;20426;-84
2022/02/05 14:49:24;;;;;;;2.30;2.00;;;;;;;;;;5047799;28;20480;-81
2022/02/05 14:51:51;;;;;;;3.43;1.57;;;;;;;;;;5053582;28;20894;-81
2022/02/05 14:54:17;;;;;;;6.43;2.07;;;;;;;;;;5045100;28;20431;-83
2022/02/05 14:56:43;;;;;;;5.10;1.60;;;;;;;;;;5052292;28;20455;-79
2022/02/05 14:59:09;;;;;;;3.00;1.60;;;;;;;;;;5057658;28;20468;-83
2022/02/05 15:01:36;;;;;;;3.40;1.47;;;;;;;;;;5055934;28;20431;-79
2022/02/05 15:04:02;;;;;;;3.40;1.57;;;;;;;;;;5056111;28;20469;-79
2022/02/05 15:06:31;;;;;;;2.33;1.47;;;;;;;;;;5040369;28;20418;-79
2022/02/05 15:08:58;;;;;;;3.22;1.98;;;;;;;;;;5048136;28;20438;-79
2022/02/05 15:11:28;;;;;;;2.95;1.63;;;;;;;;;;5045689;28;20185;-79
2022/02/05 15:13:57;;;;;;;6.72;2.60;;;;;;;;;;5041634;28;20183;-79
2022/02/05 15:16:23;;;;;;;5.03;2.25;;;;;;;;;;5032345;28;20181;-79
2022/02/05 15:18:53;;;;;;;6.15;2.15;;;;;;;;;;5046710;28;20234;-79
2022/02/05 15:21:24;;;;;;;6.60;2.10;;;;;;;;;;5052242;28;20228;-77
2022/02/05 15:23:51;;;;;;;3.72;2.33;;;;;;;;;;5047348;28;20185;-81
2022/02/05 15:26:18;;;;;;;4.53;1.60;;;;;;;;;;5058980;28;20186;-81
2022/02/05 15:28:47;;;;;;;2.65;1.83;;;;;;;;;;5029756;28;20181;-81
2022/02/05 15:31:14;;;;;;;7.60;1.77;;;;;;;;;;5048386;28;20185;-81
2022/02/05 15:33:43;;;;;;;3.20;1.80;;;;;;;;;;5051140;28;20185;-81
2022/02/05 15:36:11;;;;;;;4.22;2.00;;;;;;;;;;5059076;28;20193;-81
2022/02/05 15:43:54;;;;;;;4.20;1.60;;;;;;;;;;5059606;28;20184;-81
2022/02/05 15:46:21;;;;;;;5.70;1.57;;;;;;;;;;5051837;28;20157;-83
2022/02/05 15:48:47;;;;;;;3.08;1.80;;;;;;;;;;5041500;28;20432;-80
2022/02/05 15:51:13;;;;;;;4.00;1.83;;;;;;;;;;5045726;28;20197;-81
2022/02/05 15:53:50;;;;;;;9.82;2.17;;;;;;;;;;5040996;28;20189;-83
2022/02/05 15:59:02;;;;;;;7.53;2.47;;;;;;;;;;5045122;28;20208;-81
2022/02/05 16:01:28;;;;;;;3.13;1.90;;;;;;;;;;5061339;28;20226;-81
2022/02/05 16:03:54;;;;;;;7.80;2.45;;;;;;;;;;5034740;28;20182;-82
2022/02/05 16:06:20;;;;;;;2.87;1.80;;;;;;;;;;5046331;28;20194;-82
2022/02/05 16:08:46;;;;;;;3.20;1.90;;;;;;;;;;5047183;28;20439;-82
2022/02/05 16:11:14;;;;;;;5.97;1.85;;;;;;;;;;5050249;28;20188;-82
2022/02/05 16:13:40;;;;;;;3.22;1.80;;;;;;;;;;5059388;28;20177;-82
2022/02/05 16:16:06;;;;;;;9.70;2.47;;;;;;;;;;5052523;28;20677;-81
2022/02/05 16:18:33;;;;;;;3.67;2.00;;;;;;;;;;5049855;28;20213;-81
2022/02/05 16:20:59;;;;;;;3.72;2.85;;;;;;;;;;5037736;28;20215;-82
2022/02/05 16:23:25;;;;;;;6.15;2.85;;;;;;;;;;5048854;28;20220;-82
2022/02/05 16:25:51;;;;;;;4.10;2.35;;;;;;;;;;5037112;28;20753;-82
2022/02/05 16:28:17;;;;;;;7.03;2.90;;;;;;;;;;5055616;28;20187;-82
2022/02/05 16:30:44;;;;;;;5.32;2.70;;;;;;;;;;5040352;28;20257;-82
2022/02/05 16:33:18;;;;;;;8.27;2.60;;;;;;;;;;5054848;28;20177;-81
2022/02/05 16:35:46;;;;;;;5.57;2.00;;;;;;;;;;5057809;28;20250;-83
2022/02/05 16:38:18;;;;;;;5.13;1.98;;;;;;;;;;5047427;28;20216;-82
2022/02/05 16:40:44;;;;;;;2.22;1.77;;;;;;;;;;5069080;28;20177;-82
2022/02/05 16:43:10;;;;;;;5.00;1.88;;;;;;;;;;5050191;28;20536;-82
2022/02/05 16:45:37;;;;;;;7.93;2.20;;;;;;;;;;5053785;28;20181;-80
2022/02/05 16:48:07;;;;;;;4.05;2.40;;;;;;;;;;5042426;28;20185;-81
2022/02/05 16:50:37;;;;;;;4.03;2.20;;;;;;;;;;5060962;28;20177;-81
2022/02/05 16:53:03;;;;;;;4.55;2.47;;;;;;;;;;5059073;28;20181;-81
2022/02/05 16:55:29;;;;;;;7.25;3.17;;;;;;;;;;5062562;28;20236;-81
2022/02/05 16:57:55;;;;;;;7.90;2.95;;;;;;;;;;5065293;28;20196;-81
2022/02/05 17:00:21;;;;;;;5.87;1.80;;;;;;;;;;5062758;28;20196;-81
2022/02/05 17:02:48;;;;;;;5.85;2.60;;;;;;;;;;5046272;28;20481;-81
2022/02/05 17:05:14;;;;;;;6.65;3.42;;;;;;;;;;5058131;28;20315;-80
2022/02/05 17:07:40;;;;;;;3.33;2.10;;;;;;;;;;5062834;28;20181;-81
2022/02/05 17:10:06;;;;;;;3.38;2.25;;;;;;;;;;5042695;28;20197;-81
2022/02/05 17:12:33;;;;;;;3.15;2.15;;;;;;;;;;5044855;28;20292;-81
2022/02/05 17:14:59;;;;;;;4.28;2.50;;;;;;;;;;5061473;28;20180;-80
2022/02/05 17:17:27;;;;;;;4.97;2.60;;;;;;;;;;5058045;28;20189;-81
2022/02/05 17:19:56;;;;;;;5.55;3.17;;;;;;;;;;5045050;28;21039;-80
2022/02/05 17:22:26;;;;;;;5.07;3.25;;;;;;;;;;5046939;28;20185;-78
2022/02/05 17:24:52;;;;;;;3.42;2.80;;;;;;;;;;5060508;28;20188;-80
2022/02/05 17:27:18;;;;;;;5.97;3.53;;;;;;;;;;5045188;28;20185;-81
2022/02/05 17:29:44;;;;;;;11.95;3.78;;;;;;;;;;5054518;28;20185;-80
2022/02/05 17:32:10;;;;;;;6.07;4.30;;;;;;;;;;5058663;28;20186;-81
2022/02/05 17:34:41;;;;;;;7.00;3.70;;;;;;;;;;5042630;28;20173;-79
2022/02/05 17:37:07;;;;;;;8.43;4.95;;;;;;;;;;5040574;28;20190;-79
2022/02/05 17:39:36;;;;;;;6.72;3.42;;;;;;;;;;5060860;28;20323;-80
2022/02/05 17:42:02;;;;;;;8.32;3.88;;;;;;;;;;5048342;28;20177;-79
2022/02/05 17:44:28;;;;;;;10.88;4.05;;;;;;;;;;5054277;28;20192;-79
2022/02/05 17:46:54;;;;;;;3.83;3.33;;;;;;;;;;5043584;28;20260;-80
2022/02/05 17:49:20;;;;;;;6.40;3.85;;;;;;;;;;5033011;28;20182;-79
2022/02/05 17:51:47;;;;;;;6.70;4.37;;;;;;;;;;5052093;28;20203;-80
2022/02/05 17:54:13;;;;;;;5.38;3.90;;;;;;;;;;5043030;28;20433;-80
2022/02/05 17:56:44;;;;;;;5.55;3.55;;;;;;;;;;5047345;28;20197;-80
2022/02/05 17:59:14;;;;;;;8.48;3.75;;;;;;;;;;5038127;28;20288;-79
2022/02/05 18:01:42;;;;;;;6.05;4.72;;;;;;;;;;5059348;28;20187;-79
2022/02/05 18:04:08;;;;;;;6.72;4.50;;;;;;;;;;5059042;28;20177;-80
2022/02/05 18:06:47;;;;;;;8.63;5.28;;;;;;;;;;5037799;28;20181;-79
2022/02/05 18:09:51;;;;;;;9.15;4.65;;;;;;;;;;5041258;28;20267;-79